sensor_id;sensor_type;location;lat;lon;timestamp;P1;durP1;ratioP1;P2;durP2;ratioP2
65279;SDS011;51878;55.748;48.742;2022-12-29T00:01:41;7.90;;;4.00;;
65279;SDS011;51878;55.748;48.742;2022-12-29T00:04:09;9.07;;;4.97;;
65279;SDS011;51878;55.748;48.742;2022-12-29T00:06:41;10.50;;;5.30;;
65279;SDS011;51878;55.748;48.742;2022-12-29T00:09:10;10.57;;;5.65;;
65279;SDS011;51878;55.748;48.742;2022-12-29T00:11:39;9.82;;;5.35;;
65279;SDS011;51878;55.748;48.742;2022-12-29T00:14:08;9.65;;;5.07;;
65279;SDS011;51878;55.748;48.742;2022-12-29T00:16:54;6.78;;;3.60;;
65279;SDS011;51878;55.748;48.742;2022-12-29T00:19:22;7.30;;;4.15;;
65279;SDS011;51878;55.748;48.742;2022-12-29T00:22:09;7.30;;;3.97;;
65279;SDS011;51878;55.748;48.742;2022-12-29T00:25:16;7.70;;;4.75;;
65279;SDS011;51878;55.748;48.742;2022-12-29T00:28:02;5.18;;;3.55;;
65279;SDS011;51878;55.748;48.742;2022-12-29T00:30:47;5.57;;;3.65;;
65279;SDS011;51878;55.748;48.742;2022-12-29T00:33:33;10.23;;;4.38;;
65279;SDS011;51878;55.748;48.742;2022-12-29T00:36:30;6.57;;;3.55;;
65279;SDS011;51878;55.748;48.742;2022-12-29T00:39:06;9.82;;;5.40;;
65279;SDS011;51878;55.748;48.742;2022-12-29T00:41:55;8.05;;;4.60;;
65279;SDS011;51878;55.748;48.742;2022-12-29T00:44:41;18.58;;;6.93;;
65279;SDS011;51878;55.748;48.742;2022-12-29T00:47:08;8.68;;;4.95;;
65279;SDS011;51878;55.748;48.742;2022-12-29T00:49:35;11.73;;;5.43;;
65279;SDS011;51878;55.748;48.742;2022-12-29T00:52:03;9.85;;;5.70;;
65279;SDS011;51878;55.748;48.742;2022-12-29T00:54:38;8.50;;;4.80;;
65279;SDS011;51878;55.748;48.742;2022-12-29T00:57:06;6.32;;;4.47;;
65279;SDS011;51878;55.748;48.742;2022-12-29T00:59:35;14.20;;;5.05;;
65279;SDS011;51878;55.748;48.742;2022-12-29T01:02:03;8.68;;;4.38;;
65279;SDS011;51878;55.748;48.742;2022-12-29T01:04:30;7.55;;;3.83;;
65279;SDS011;51878;55.748;48.742;2022-12-29T01:06:57;6.47;;;4.10;;
65279;SDS011;51878;55.748;48.742;2022-12-29T01:09:24;9.93;;;4.53;;
65279;SDS011;51878;55.748;48.742;2022-12-29T01:12:10;10.85;;;5.50;;
65279;SDS011;51878;55.748;48.742;2022-12-29T01:14:38;7.47;;;3.92;;
65279;SDS011;51878;55.748;48.742;2022-12-29T01:17:05;6.55;;;3.25;;
65279;SDS011;51878;55.748;48.742;2022-12-29T01:19:32;9.38;;;5.22;;
65279;SDS011;51878;55.748;48.742;2022-12-29T01:21:59;8.77;;;4.70;;
65279;SDS011;51878;55.748;48.742;2022-12-29T01:24:27;5.22;;;3.45;;
65279;SDS011;51878;55.748;48.742;2022-12-29T01:26:54;8.63;;;4.43;;
65279;SDS011;51878;55.748;48.742;2022-12-29T01:29:21;9.30;;;4.63;;
65279;SDS011;51878;55.748;48.742;2022-12-29T01:31:49;7.85;;;5.03;;
65279;SDS011;51878;55.748;48.742;2022-12-29T01:34:16;7.32;;;4.97;;
65279;SDS011;51878;55.748;48.742;2022-12-29T01:36:44;10.00;;;4.60;;
65279;SDS011;51878;55.748;48.742;2022-12-29T01:39:11;11.52;;;5.45;;
65279;SDS011;51878;55.748;48.742;2022-12-29T01:41:38;13.30;;;4.80;;
65279;SDS011;51878;55.748;48.742;2022-12-29T01:47:09;9.93;;;5.03;;
65279;SDS011;51878;55.748;48.742;2022-12-29T01:49:37;8.52;;;4.15;;
65279;SDS011;51878;55.748;48.742;2022-12-29T01:52:05;10.13;;;5.60;;
65279;SDS011;51878;55.748;48.742;2022-12-29T01:57:09;6.30;;;3.40;;
65279;SDS011;51878;55.748;48.742;2022-12-29T01:59:43;8.30;;;4.65;;
65279;SDS011;51878;55.748;48.742;2022-12-29T02:02:17;5.95;;;3.45;;
65279;SDS011;51878;55.748;48.742;2022-12-29T02:04:44;11.13;;;5.82;;
65279;SDS011;51878;55.748;48.742;2022-12-29T02:07:13;7.95;;;4.25;;
65279;SDS011;51878;55.748;48.742;2022-12-29T02:09:48;9.38;;;5.70;;
65279;SDS011;51878;55.748;48.742;2022-12-29T02:12:17;7.20;;;3.70;;
65279;SDS011;51878;55.748;48.742;2022-12-29T02:14:46;8.32;;;3.70;;
65279;SDS011;51878;55.748;48.742;2022-12-29T02:17:19;9.50;;;4.47;;
65279;SDS011;51878;55.748;48.742;2022-12-29T02:25:55;5.72;;;3.78;;
65279;SDS011;51878;55.748;48.742;2022-12-29T02:37:10;9.68;;;5.15;;
65279;SDS011;51878;55.748;48.742;2022-12-29T02:40:37;11.73;;;4.88;;
65279;SDS011;51878;55.748;48.742;2022-12-29T02:43:04;8.30;;;4.50;;
65279;SDS011;51878;55.748;48.742;2022-12-29T02:45:55;8.23;;;5.20;;
65279;SDS011;51878;55.748;48.742;2022-12-29T02:51:03;8.20;;;4.28;;
65279;SDS011;51878;55.748;48.742;2022-12-29T02:53:35;7.53;;;4.45;;
65279;SDS011;51878;55.748;48.742;2022-12-29T02:56:22;5.57;;;3.67;;
65279;SDS011;51878;55.748;48.742;2022-12-29T02:58:49;7.55;;;3.75;;
65279;SDS011;51878;55.748;48.742;2022-12-29T03:04:44;7.38;;;4.65;;
65279;SDS011;51878;55.748;48.742;2022-12-29T03:07:24;10.75;;;6.07;;
65279;SDS011;51878;55.748;48.742;2022-12-29T03:10:25;7.43;;;4.05;;
65279;SDS011;51878;55.748;48.742;2022-12-29T03:24:43;10.07;;;5.72;;
65279;SDS011;51878;55.748;48.742;2022-12-29T03:27:15;10.07;;;4.40;;
65279;SDS011;51878;55.748;48.742;2022-12-29T03:29:47;7.72;;;3.08;;
65279;SDS011;51878;55.748;48.742;2022-12-29T03:34:49;4.97;;;2.97;;
65279;SDS011;51878;55.748;48.742;2022-12-29T03:37:18;4.88;;;3.08;;
65279;SDS011;51878;55.748;48.742;2022-12-29T03:39:50;8.00;;;3.83;;
65279;SDS011;51878;55.748;48.742;2022-12-29T03:42:19;5.88;;;3.58;;
65279;SDS011;51878;55.748;48.742;2022-12-29T03:44:48;6.63;;;3.97;;
65279;SDS011;51878;55.748;48.742;2022-12-29T03:47:15;13.95;;;4.78;;
65279;SDS011;51878;55.748;48.742;2022-12-29T03:49:42;8.48;;;3.97;;
65279;SDS011;51878;55.748;48.742;2022-12-29T03:52:09;7.25;;;4.00;;
65279;SDS011;51878;55.748;48.742;2022-12-29T03:54:36;4.38;;;2.85;;
65279;SDS011;51878;55.748;48.742;2022-12-29T03:57:03;6.63;;;3.85;;
65279;SDS011;51878;55.748;48.742;2022-12-29T03:59:30;11.15;;;3.67;;
65279;SDS011;51878;55.748;48.742;2022-12-29T04:01:57;7.40;;;3.45;;
65279;SDS011;51878;55.748;48.742;2022-12-29T04:04:27;6.05;;;3.78;;
65279;SDS011;51878;55.748;48.742;2022-12-29T04:06:56;12.75;;;5.20;;
65279;SDS011;51878;55.748;48.742;2022-12-29T04:09:23;8.85;;;4.45;;
65279;SDS011;51878;55.748;48.742;2022-12-29T04:11:50;7.80;;;3.83;;
65279;SDS011;51878;55.748;48.742;2022-12-29T04:14:17;8.23;;;4.78;;
65279;SDS011;51878;55.748;48.742;2022-12-29T04:16:44;8.85;;;4.18;;
65279;SDS011;51878;55.748;48.742;2022-12-29T04:19:11;12.10;;;5.07;;
65279;SDS011;51878;55.748;48.742;2022-12-29T04:21:38;5.93;;;4.00;;
65279;SDS011;51878;55.748;48.742;2022-12-29T04:24:05;11.95;;;4.95;;
65279;SDS011;51878;55.748;48.742;2022-12-29T04:26:35;9.30;;;4.72;;
65279;SDS011;51878;55.748;48.742;2022-12-29T04:29:02;6.70;;;4.45;;
65279;SDS011;51878;55.748;48.742;2022-12-29T04:31:29;8.90;;;4.50;;
65279;SDS011;51878;55.748;48.742;2022-12-29T04:33:56;7.65;;;4.10;;
65279;SDS011;51878;55.748;48.742;2022-12-29T04:36:23;7.80;;;4.75;;
65279;SDS011;51878;55.748;48.742;2022-12-29T04:38:55;3.72;;;3.08;;
65279;SDS011;51878;55.748;48.742;2022-12-29T04:41:22;12.75;;;5.72;;
65279;SDS011;51878;55.748;48.742;2022-12-29T04:43:49;7.78;;;3.75;;
65279;SDS011;51878;55.748;48.742;2022-12-29T04:46:16;7.78;;;3.65;;
65279;SDS011;51878;55.748;48.742;2022-12-29T04:48:43;8.50;;;4.25;;
65279;SDS011;51878;55.748;48.742;2022-12-29T04:51:10;6.30;;;3.75;;
65279;SDS011;51878;55.748;48.742;2022-12-29T04:53:37;6.03;;;4.00;;
65279;SDS011;51878;55.748;48.742;2022-12-29T04:56:04;5.13;;;3.42;;
65279;SDS011;51878;55.748;48.742;2022-12-29T04:58:31;6.28;;;3.85;;
65279;SDS011;51878;55.748;48.742;2022-12-29T05:00:58;9.80;;;3.83;;
65279;SDS011;51878;55.748;48.742;2022-12-29T05:03:25;7.78;;;3.70;;
65279;SDS011;51878;55.748;48.742;2022-12-29T05:05:53;6.15;;;4.03;;
65279;SDS011;51878;55.748;48.742;2022-12-29T05:08:22;6.22;;;3.83;;
65279;SDS011;51878;55.748;48.742;2022-12-29T05:10:53;8.63;;;4.40;;
65279;SDS011;51878;55.748;48.742;2022-12-29T05:13:20;5.57;;;3.40;;
65279;SDS011;51878;55.748;48.742;2022-12-29T05:15:49;10.52;;;4.20;;
65279;SDS011;51878;55.748;48.742;2022-12-29T05:18:17;7.07;;;4.40;;
65279;SDS011;51878;55.748;48.742;2022-12-29T05:20:45;6.00;;;3.03;;
65279;SDS011;51878;55.748;48.742;2022-12-29T05:23:13;7.80;;;3.67;;
65279;SDS011;51878;55.748;48.742;2022-12-29T05:25:41;5.05;;;3.47;;
65279;SDS011;51878;55.748;48.742;2022-12-29T05:28:09;6.25;;;3.78;;
65279;SDS011;51878;55.748;48.742;2022-12-29T05:30:36;6.00;;;3.47;;
65279;SDS011;51878;55.748;48.742;2022-12-29T05:33:03;10.90;;;4.65;;
65279;SDS011;51878;55.748;48.742;2022-12-29T05:35:33;5.18;;;3.25;;
65279;SDS011;51878;55.748;48.742;2022-12-29T05:38:00;3.67;;;2.13;;
65279;SDS011;51878;55.748;48.742;2022-12-29T05:40:27;10.10;;;3.63;;
65279;SDS011;51878;55.748;48.742;2022-12-29T05:42:54;6.97;;;3.20;;
65279;SDS011;51878;55.748;48.742;2022-12-29T05:45:21;7.07;;;3.78;;
65279;SDS011;51878;55.748;48.742;2022-12-29T05:47:48;9.15;;;3.30;;
65279;SDS011;51878;55.748;48.742;2022-12-29T05:50:15;6.10;;;3.78;;
65279;SDS011;51878;55.748;48.742;2022-12-29T05:52:42;8.95;;;3.42;;
65279;SDS011;51878;55.748;48.742;2022-12-29T05:55:10;8.32;;;5.15;;
65279;SDS011;51878;55.748;48.742;2022-12-29T05:57:38;5.28;;;3.53;;
65279;SDS011;51878;55.748;48.742;2022-12-29T06:00:05;8.52;;;4.10;;
65279;SDS011;51878;55.748;48.742;2022-12-29T06:02:33;12.95;;;4.30;;
65279;SDS011;51878;55.748;48.742;2022-12-29T06:05:00;8.82;;;3.63;;
65279;SDS011;51878;55.748;48.742;2022-12-29T06:07:28;6.70;;;3.50;;
65279;SDS011;51878;55.748;48.742;2022-12-29T06:09:55;11.00;;;4.45;;
65279;SDS011;51878;55.748;48.742;2022-12-29T06:12:26;7.03;;;2.92;;
65279;SDS011;51878;55.748;48.742;2022-12-29T06:14:54;6.90;;;3.83;;
65279;SDS011;51878;55.748;48.742;2022-12-29T06:17:21;7.82;;;3.95;;
65279;SDS011;51878;55.748;48.742;2022-12-29T06:19:48;8.52;;;4.30;;
65279;SDS011;51878;55.748;48.742;2022-12-29T06:22:15;7.63;;;3.35;;
65279;SDS011;51878;55.748;48.742;2022-12-29T06:24:42;7.25;;;4.03;;
65279;SDS011;51878;55.748;48.742;2022-12-29T06:27:09;7.57;;;3.78;;
65279;SDS011;51878;55.748;48.742;2022-12-29T06:29:36;6.60;;;3.72;;
65279;SDS011;51878;55.748;48.742;2022-12-29T06:32:03;5.13;;;3.60;;
65279;SDS011;51878;55.748;48.742;2022-12-29T06:34:30;4.53;;;3.05;;
65279;SDS011;51878;55.748;48.742;2022-12-29T06:37:00;8.57;;;3.42;;
65279;SDS011;51878;55.748;48.742;2022-12-29T06:39:28;4.57;;;2.95;;
65279;SDS011;51878;55.748;48.742;2022-12-29T06:41:55;17.10;;;2.97;;
65279;SDS011;51878;55.748;48.742;2022-12-29T06:44:22;4.88;;;2.72;;
65279;SDS011;51878;55.748;48.742;2022-12-29T06:46:49;5.60;;;3.58;;
65279;SDS011;51878;55.748;48.742;2022-12-29T06:49:17;5.50;;;2.38;;
65279;SDS011;51878;55.748;48.742;2022-12-29T06:51:44;8.30;;;3.83;;
65279;SDS011;51878;55.748;48.742;2022-12-29T06:54:12;7.70;;;3.50;;
65279;SDS011;51878;55.748;48.742;2022-12-29T06:56:39;4.97;;;3.15;;
65279;SDS011;51878;55.748;48.742;2022-12-29T06:59:06;5.45;;;3.83;;
65279;SDS011;51878;55.748;48.742;2022-12-29T07:01:33;5.95;;;2.65;;
65279;SDS011;51878;55.748;48.742;2022-12-29T07:04:02;4.80;;;2.83;;
65279;SDS011;51878;55.748;48.742;2022-12-29T07:06:30;7.05;;;3.45;;
65279;SDS011;51878;55.748;48.742;2022-12-29T07:08:57;6.65;;;2.45;;
65279;SDS011;51878;55.748;48.742;2022-12-29T07:11:24;4.78;;;2.20;;
65279;SDS011;51878;55.748;48.742;2022-12-29T07:13:52;5.75;;;2.92;;
65279;SDS011;51878;55.748;48.742;2022-12-29T07:16:19;5.13;;;3.40;;
65279;SDS011;51878;55.748;48.742;2022-12-29T07:18:46;4.82;;;2.70;;
65279;SDS011;51878;55.748;48.742;2022-12-29T07:21:13;8.25;;;3.67;;
65279;SDS011;51878;55.748;48.742;2022-12-29T07:23:43;8.95;;;3.90;;
65279;SDS011;51878;55.748;48.742;2022-12-29T07:26:11;9.20;;;4.32;;
65279;SDS011;51878;55.748;48.742;2022-12-29T07:28:39;3.65;;;2.53;;
65279;SDS011;51878;55.748;48.742;2022-12-29T07:31:14;7.00;;;3.60;;
65279;SDS011;51878;55.748;48.742;2022-12-29T07:33:44;5.07;;;2.85;;
65279;SDS011;51878;55.748;48.742;2022-12-29T07:36:12;6.50;;;3.38;;
65279;SDS011;51878;55.748;48.742;2022-12-29T07:38:39;5.10;;;3.22;;
65279;SDS011;51878;55.748;48.742;2022-12-29T07:41:06;4.57;;;2.80;;
65279;SDS011;51878;55.748;48.742;2022-12-29T07:43:34;8.90;;;3.70;;
65279;SDS011;51878;55.748;48.742;2022-12-29T07:46:01;6.97;;;3.25;;
65279;SDS011;51878;55.748;48.742;2022-12-29T07:48:28;11.27;;;3.58;;
65279;SDS011;51878;55.748;48.742;2022-12-29T07:50:57;9.50;;;3.70;;
65279;SDS011;51878;55.748;48.742;2022-12-29T07:53:24;6.43;;;2.92;;
65279;SDS011;51878;55.748;48.742;2022-12-29T07:55:51;5.25;;;3.00;;
65279;SDS011;51878;55.748;48.742;2022-12-29T07:58:18;8.45;;;3.58;;
65279;SDS011;51878;55.748;48.742;2022-12-29T08:00:45;6.90;;;3.13;;
65279;SDS011;51878;55.748;48.742;2022-12-29T08:03:12;5.75;;;3.47;;
65279;SDS011;51878;55.748;48.742;2022-12-29T08:05:41;6.50;;;2.90;;
65279;SDS011;51878;55.748;48.742;2022-12-29T08:08:08;5.72;;;3.08;;
65279;SDS011;51878;55.748;48.742;2022-12-29T08:10:35;6.32;;;2.90;;
65279;SDS011;51878;55.748;48.742;2022-12-29T08:13:02;6.97;;;3.00;;
65279;SDS011;51878;55.748;48.742;2022-12-29T08:15:32;6.00;;;2.92;;
65279;SDS011;51878;55.748;48.742;2022-12-29T08:18:05;6.10;;;3.83;;
65279;SDS011;51878;55.748;48.742;2022-12-29T08:20:32;6.40;;;2.95;;
65279;SDS011;51878;55.748;48.742;2022-12-29T08:23:02;6.45;;;3.67;;
65279;SDS011;51878;55.748;48.742;2022-12-29T08:25:32;5.90;;;3.80;;
65279;SDS011;51878;55.748;48.742;2022-12-29T08:27:59;5.10;;;3.15;;
65279;SDS011;51878;55.748;48.742;2022-12-29T08:30:26;4.97;;;3.10;;
65279;SDS011;51878;55.748;48.742;2022-12-29T08:32:53;4.68;;;2.70;;
65279;SDS011;51878;55.748;48.742;2022-12-29T08:35:20;6.05;;;3.10;;
65279;SDS011;51878;55.748;48.742;2022-12-29T08:37:47;3.38;;;1.98;;
65279;SDS011;51878;55.748;48.742;2022-12-29T08:40:14;7.50;;;3.28;;
65279;SDS011;51878;55.748;48.742;2022-12-29T08:42:41;7.03;;;4.10;;
65279;SDS011;51878;55.748;48.742;2022-12-29T08:45:09;7.18;;;3.22;;
65279;SDS011;51878;55.748;48.742;2022-12-29T08:47:36;5.93;;;3.10;;
65279;SDS011;51878;55.748;48.742;2022-12-29T08:50:03;6.35;;;2.55;;
65279;SDS011;51878;55.748;48.742;2022-12-29T08:52:33;4.32;;;2.60;;
65279;SDS011;51878;55.748;48.742;2022-12-29T08:55:03;4.35;;;2.47;;
65279;SDS011;51878;55.748;48.742;2022-12-29T08:57:36;3.55;;;2.00;;
65279;SDS011;51878;55.748;48.742;2022-12-29T09:00:03;3.60;;;2.03;;
65279;SDS011;51878;55.748;48.742;2022-12-29T09:02:31;6.13;;;2.90;;
65279;SDS011;51878;55.748;48.742;2022-12-29T09:04:58;9.82;;;2.55;;
65279;SDS011;51878;55.748;48.742;2022-12-29T09:07:28;8.38;;;3.67;;
65279;SDS011;51878;55.748;48.742;2022-12-29T09:09:55;4.38;;;2.42;;
65279;SDS011;51878;55.748;48.742;2022-12-29T09:12:22;3.50;;;2.20;;
65279;SDS011;51878;55.748;48.742;2022-12-29T09:14:49;6.63;;;3.13;;
65279;SDS011;51878;55.748;48.742;2022-12-29T09:17:40;8.55;;;3.33;;
65279;SDS011;51878;55.748;48.742;2022-12-29T09:20:14;6.53;;;3.33;;
65279;SDS011;51878;55.748;48.742;2022-12-29T09:22:44;7.47;;;3.03;;
65279;SDS011;51878;55.748;48.742;2022-12-29T09:25:12;7.45;;;3.40;;
65279;SDS011;51878;55.748;48.742;2022-12-29T09:27:39;5.05;;;2.72;;
65279;SDS011;51878;55.748;48.742;2022-12-29T09:30:07;6.03;;;3.15;;
65279;SDS011;51878;55.748;48.742;2022-12-29T09:32:42;5.10;;;2.75;;
65279;SDS011;51878;55.748;48.742;2022-12-29T09:35:11;9.05;;;3.35;;
65279;SDS011;51878;55.748;48.742;2022-12-29T09:37:38;5.78;;;3.22;;
65279;SDS011;51878;55.748;48.742;2022-12-29T09:40:06;8.52;;;3.35;;
65279;SDS011;51878;55.748;48.742;2022-12-29T09:42:39;5.18;;;3.05;;
65279;SDS011;51878;55.748;48.742;2022-12-29T09:47:38;10.50;;;4.07;;
65279;SDS011;51878;55.748;48.742;2022-12-29T09:50:15;6.57;;;2.80;;
65279;SDS011;51878;55.748;48.742;2022-12-29T09:58:19;4.72;;;2.70;;
65279;SDS011;51878;55.748;48.742;2022-12-29T10:00:58;7.05;;;2.72;;
65279;SDS011;51878;55.748;48.742;2022-12-29T10:03:45;5.78;;;3.15;;
65279;SDS011;51878;55.748;48.742;2022-12-29T10:09:15;7.95;;;3.72;;
65279;SDS011;51878;55.748;48.742;2022-12-29T10:20:14;5.95;;;3.63;;
65279;SDS011;51878;55.748;48.742;2022-12-29T10:25:25;8.15;;;3.30;;
65279;SDS011;51878;55.748;48.742;2022-12-29T10:27:59;6.70;;;3.70;;
65279;SDS011;51878;55.748;48.742;2022-12-29T10:30:32;4.93;;;3.50;;
65279;SDS011;51878;55.748;48.742;2022-12-29T10:33:02;4.97;;;3.33;;
65279;SDS011;51878;55.748;48.742;2022-12-29T10:35:34;7.53;;;3.83;;
65279;SDS011;51878;55.748;48.742;2022-12-29T10:38:40;4.25;;;2.85;;
65279;SDS011;51878;55.748;48.742;2022-12-29T10:41:11;4.45;;;2.80;;
65279;SDS011;51878;55.748;48.742;2022-12-29T10:44:00;5.93;;;3.38;;
65279;SDS011;51878;55.748;48.742;2022-12-29T10:46:28;7.90;;;2.78;;
65279;SDS011;51878;55.748;48.742;2022-12-29T10:48:59;5.47;;;2.85;;
65279;SDS011;51878;55.748;48.742;2022-12-29T10:51:29;9.25;;;4.13;;
65279;SDS011;51878;55.748;48.742;2022-12-29T10:57:20;6.65;;;3.33;;
65279;SDS011;51878;55.748;48.742;2022-12-29T11:00:14;7.22;;;4.00;;
65279;SDS011;51878;55.748;48.742;2022-12-29T11:09:12;7.63;;;2.83;;
65279;SDS011;51878;55.748;48.742;2022-12-29T11:11:42;5.68;;;3.55;;
65279;SDS011;51878;55.748;48.742;2022-12-29T11:14:14;6.10;;;3.97;;
65279;SDS011;51878;55.748;48.742;2022-12-29T11:16:45;5.15;;;2.80;;
65279;SDS011;51878;55.748;48.742;2022-12-29T11:19:25;6.30;;;3.42;;
65279;SDS011;51878;55.748;48.742;2022-12-29T11:22:22;7.45;;;4.25;;
65279;SDS011;51878;55.748;48.742;2022-12-29T11:24:52;9.13;;;3.83;;
65279;SDS011;51878;55.748;48.742;2022-12-29T11:27:25;9.00;;;4.25;;
65279;SDS011;51878;55.748;48.742;2022-12-29T11:29:56;8.38;;;3.60;;
65279;SDS011;51878;55.748;48.742;2022-12-29T11:32:26;7.60;;;4.20;;
65279;SDS011;51878;55.748;48.742;2022-12-29T11:35:17;8.52;;;4.05;;
65279;SDS011;51878;55.748;48.742;2022-12-29T11:38:23;11.20;;;4.07;;
65279;SDS011;51878;55.748;48.742;2022-12-29T11:41:00;7.97;;;4.47;;
65279;SDS011;51878;55.748;48.742;2022-12-29T11:45:55;6.68;;;3.50;;
65279;SDS011;51878;55.748;48.742;2022-12-29T11:48:23;6.60;;;3.90;;
65279;SDS011;51878;55.748;48.742;2022-12-29T11:50:55;8.52;;;4.05;;
65279;SDS011;51878;55.748;48.742;2022-12-29T11:53:36;4.68;;;2.72;;
65279;SDS011;51878;55.748;48.742;2022-12-29T11:56:10;6.35;;;3.85;;
65279;SDS011;51878;55.748;48.742;2022-12-29T11:58:41;10.25;;;4.65;;
65279;SDS011;51878;55.748;48.742;2022-12-29T12:01:16;11.02;;;4.68;;
65279;SDS011;51878;55.748;48.742;2022-12-29T12:04:03;9.80;;;4.75;;
65279;SDS011;51878;55.748;48.742;2022-12-29T12:06:35;4.50;;;2.72;;
65279;SDS011;51878;55.748;48.742;2022-12-29T12:09:14;7.55;;;3.83;;
65279;SDS011;51878;55.748;48.742;2022-12-29T12:11:51;8.30;;;4.25;;
65279;SDS011;51878;55.748;48.742;2022-12-29T12:14:26;7.85;;;4.13;;
65279;SDS011;51878;55.748;48.742;2022-12-29T12:17:05;6.80;;;4.03;;
65279;SDS011;51878;55.748;48.742;2022-12-29T12:19:40;6.97;;;3.67;;
65279;SDS011;51878;55.748;48.742;2022-12-29T12:22:13;12.65;;;5.13;;
65279;SDS011;51878;55.748;48.742;2022-12-29T12:27:21;8.57;;;4.22;;
65279;SDS011;51878;55.748;48.742;2022-12-29T12:30:07;4.75;;;3.08;;
65279;SDS011;51878;55.748;48.742;2022-12-29T12:35:44;4.68;;;3.10;;
65279;SDS011;51878;55.748;48.742;2022-12-29T12:38:24;6.57;;;4.40;;
65279;SDS011;51878;55.748;48.742;2022-12-29T12:43:43;7.80;;;3.50;;
65279;SDS011;51878;55.748;48.742;2022-12-29T12:46:23;8.20;;;3.92;;
65279;SDS011;51878;55.748;48.742;2022-12-29T12:51:38;8.05;;;3.88;;
65279;SDS011;51878;55.748;48.742;2022-12-29T13:00:01;10.40;;;5.10;;
65279;SDS011;51878;55.748;48.742;2022-12-29T13:03:19;9.13;;;3.97;;
65279;SDS011;51878;55.748;48.742;2022-12-29T13:20:18;9.85;;;4.55;;
65279;SDS011;51878;55.748;48.742;2022-12-29T13:25:51;9.20;;;4.53;;
65279;SDS011;51878;55.748;48.742;2022-12-29T13:31:15;7.55;;;4.50;;
65279;SDS011;51878;55.748;48.742;2022-12-29T13:41:51;7.95;;;4.60;;
65279;SDS011;51878;55.748;48.742;2022-12-29T13:44:21;7.78;;;4.20;;
65279;SDS011;51878;55.748;48.742;2022-12-29T13:46:53;8.18;;;3.95;;
65279;SDS011;51878;55.748;48.742;2022-12-29T13:49:24;8.80;;;4.90;;
65279;SDS011;51878;55.748;48.742;2022-12-29T13:51:59;10.48;;;4.97;;
65279;SDS011;51878;55.748;48.742;2022-12-29T13:54:39;7.18;;;4.38;;
65279;SDS011;51878;55.748;48.742;2022-12-29T14:00:11;10.90;;;5.55;;
65279;SDS011;51878;55.748;48.742;2022-12-29T14:07:44;8.68;;;5.68;;
65279;SDS011;51878;55.748;48.742;2022-12-29T14:13:18;7.47;;;3.95;;
65279;SDS011;51878;55.748;48.742;2022-12-29T14:15:52;8.93;;;4.72;;
65279;SDS011;51878;55.748;48.742;2022-12-29T14:18:43;8.13;;;4.47;;
65279;SDS011;51878;55.748;48.742;2022-12-29T14:21:18;9.98;;;5.22;;
65279;SDS011;51878;55.748;48.742;2022-12-29T14:23:50;10.27;;;5.18;;
65279;SDS011;51878;55.748;48.742;2022-12-29T14:26:32;10.68;;;4.50;;
65279;SDS011;51878;55.748;48.742;2022-12-29T14:31:51;9.25;;;4.93;;
65279;SDS011;51878;55.748;48.742;2022-12-29T14:34:25;6.68;;;3.97;;
65279;SDS011;51878;55.748;48.742;2022-12-29T14:36:59;13.02;;;4.82;;
65279;SDS011;51878;55.748;48.742;2022-12-29T14:44:48;9.55;;;4.60;;
65279;SDS011;51878;55.748;48.742;2022-12-29T14:50:07;8.93;;;4.80;;
65279;SDS011;51878;55.748;48.742;2022-12-29T14:57:45;10.23;;;5.53;;
65279;SDS011;51878;55.748;48.742;2022-12-29T15:00:21;10.63;;;5.50;;
65279;SDS011;51878;55.748;48.742;2022-12-29T15:05:42;7.18;;;3.60;;
65279;SDS011;51878;55.748;48.742;2022-12-29T15:08:13;7.57;;;3.92;;
65279;SDS011;51878;55.748;48.742;2022-12-29T15:10:52;11.02;;;4.50;;
65279;SDS011;51878;55.748;48.742;2022-12-29T15:13:24;8.23;;;4.18;;
65279;SDS011;51878;55.748;48.742;2022-12-29T15:16:00;7.18;;;4.70;;
65279;SDS011;51878;55.748;48.742;2022-12-29T15:18:31;9.43;;;4.10;;
65279;SDS011;51878;55.748;48.742;2022-12-29T15:21:00;6.80;;;4.60;;
65279;SDS011;51878;55.748;48.742;2022-12-29T15:23:30;11.23;;;4.05;;
65279;SDS011;51878;55.748;48.742;2022-12-29T15:26:00;9.38;;;4.85;;
65279;SDS011;51878;55.748;48.742;2022-12-29T15:31:06;9.43;;;4.93;;
65279;SDS011;51878;55.748;48.742;2022-12-29T15:33:42;7.38;;;4.63;;
65279;SDS011;51878;55.748;48.742;2022-12-29T15:36:13;8.63;;;5.03;;
65279;SDS011;51878;55.748;48.742;2022-12-29T15:46:15;8.68;;;4.65;;
65279;SDS011;51878;55.748;48.742;2022-12-29T15:48:43;8.20;;;4.43;;
65279;SDS011;51878;55.748;48.742;2022-12-29T15:51:18;9.35;;;4.82;;
65279;SDS011;51878;55.748;48.742;2022-12-29T15:53:56;5.55;;;3.90;;
65279;SDS011;51878;55.748;48.742;2022-12-29T15:56:24;7.65;;;4.35;;
65279;SDS011;51878;55.748;48.742;2022-12-29T15:59:00;10.95;;;5.15;;
65279;SDS011;51878;55.748;48.742;2022-12-29T16:01:45;10.00;;;5.80;;
65279;SDS011;51878;55.748;48.742;2022-12-29T16:07:05;7.10;;;4.32;;
65279;SDS011;51878;55.748;48.742;2022-12-29T16:09:48;8.55;;;4.53;;
65279;SDS011;51878;55.748;48.742;2022-12-29T16:12:22;8.57;;;5.13;;
65279;SDS011;51878;55.748;48.742;2022-12-29T16:14:54;6.88;;;4.43;;
65279;SDS011;51878;55.748;48.742;2022-12-29T16:17:23;17.15;;;4.75;;
65279;SDS011;51878;55.748;48.742;2022-12-29T16:19:56;10.80;;;5.43;;
65279;SDS011;51878;55.748;48.742;2022-12-29T16:25:02;9.15;;;4.78;;
65279;SDS011;51878;55.748;48.742;2022-12-29T16:27:36;9.35;;;4.72;;
65279;SDS011;51878;55.748;48.742;2022-12-29T16:30:22;22.75;;;6.03;;
65279;SDS011;51878;55.748;48.742;2022-12-29T16:33:00;10.15;;;5.15;;
65279;SDS011;51878;55.748;48.742;2022-12-29T16:35:44;13.52;;;4.65;;
65279;SDS011;51878;55.748;48.742;2022-12-29T16:38:20;12.60;;;6.18;;
65279;SDS011;51878;55.748;48.742;2022-12-29T16:40:56;12.13;;;6.22;;
65279;SDS011;51878;55.748;48.742;2022-12-29T16:43:28;7.95;;;4.82;;
65279;SDS011;51878;55.748;48.742;2022-12-29T16:48:34;14.32;;;5.88;;
65279;SDS011;51878;55.748;48.742;2022-12-29T16:53:52;8.73;;;5.43;;
65279;SDS011;51878;55.748;48.742;2022-12-29T16:56:23;8.70;;;5.38;;
65279;SDS011;51878;55.748;48.742;2022-12-29T16:58:58;10.27;;;5.65;;
65279;SDS011;51878;55.748;48.742;2022-12-29T17:01:37;10.95;;;5.95;;
65279;SDS011;51878;55.748;48.742;2022-12-29T17:04:10;15.48;;;5.95;;
65279;SDS011;51878;55.748;48.742;2022-12-29T17:06:39;9.18;;;5.45;;
65279;SDS011;51878;55.748;48.742;2022-12-29T17:09:40;15.75;;;6.53;;
65279;SDS011;51878;55.748;48.742;2022-12-29T17:12:00;9.15;;;5.00;;
65279;SDS011;51878;55.748;48.742;2022-12-29T17:27:22;14.15;;;8.43;;
65279;SDS011;51878;55.748;48.742;2022-12-29T17:29:59;12.27;;;6.80;;
65279;SDS011;51878;55.748;48.742;2022-12-29T17:32:32;10.95;;;6.38;;
65279;SDS011;51878;55.748;48.742;2022-12-29T17:34:59;11.50;;;5.60;;
65279;SDS011;51878;55.748;48.742;2022-12-29T17:37:33;11.68;;;6.68;;
65279;SDS011;51878;55.748;48.742;2022-12-29T17:40:02;9.73;;;5.80;;
65279;SDS011;51878;55.748;48.742;2022-12-29T17:42:40;11.63;;;6.72;;
65279;SDS011;51878;55.748;48.742;2022-12-29T17:45:16;12.52;;;5.80;;
65279;SDS011;51878;55.748;48.742;2022-12-29T17:47:48;12.02;;;5.60;;
65279;SDS011;51878;55.748;48.742;2022-12-29T17:50:20;10.68;;;6.32;;
65279;SDS011;51878;55.748;48.742;2022-12-29T17:52:57;16.92;;;7.70;;
65279;SDS011;51878;55.748;48.742;2022-12-29T17:55:32;9.52;;;5.15;;
65279;SDS011;51878;55.748;48.742;2022-12-29T17:58:37;9.18;;;5.13;;
65279;SDS011;51878;55.748;48.742;2022-12-29T18:00:58;11.60;;;6.22;;
65279;SDS011;51878;55.748;48.742;2022-12-29T18:03:33;14.50;;;5.90;;